sensor_id;sensor_type;location;lat;lon;timestamp;P1;durP1;ratioP1;P2;durP2;ratioP2
9422;SDS011;65863;49.506;10.400;2024-03-02T00:03:06;25.10;;;16.97;;
9422;SDS011;65863;49.506;10.400;2024-03-02T00:06:54;21.87;;;14.77;;
9422;SDS011;65863;49.506;10.400;2024-03-02T00:09:45;23.67;;;14.33;;
9422;SDS011;65863;49.506;10.400;2024-03-02T00:13:06;19.53;;;14.63;;
9422;SDS011;65863;49.506;10.400;2024-03-02T00:16:19;20.53;;;13.53;;
9422;SDS011;65863;49.506;10.400;2024-03-02T00:19:28;18.07;;;12.63;;
9422;SDS011;65863;49.506;10.400;2024-03-02T00:22:16;16.63;;;12.53;;
9422;SDS011;65863;49.506;10.400;2024-03-02T00:25:25;16.23;;;12.63;;
9422;SDS011;65863;49.506;10.400;2024-03-02T00:28:46;16.50;;;12.90;;
9422;SDS011;65863;49.506;10.400;2024-03-02T00:31:42;17.03;;;12.50;;
9422;SDS011;65863;49.506;10.400;2024-03-02T00:35:05;20.57;;;12.97;;
9422;SDS011;65863;49.506;10.400;2024-03-02T00:37:50;18.60;;;13.87;;
9422;SDS011;65863;49.506;10.400;2024-03-02T00:41:05;19.60;;;14.93;;
9422;SDS011;65863;49.506;10.400;2024-03-02T00:44:36;20.23;;;14.43;;
9422;SDS011;65863;49.506;10.400;2024-03-02T00:47:21;18.73;;;13.77;;
9422;SDS011;65863;49.506;10.400;2024-03-02T00:50:07;18.60;;;13.60;;
9422;SDS011;65863;49.506;10.400;2024-03-02T00:52:54;17.93;;;14.23;;
9422;SDS011;65863;49.506;10.400;2024-03-02T00:55:39;17.83;;;13.17;;
9422;SDS011;65863;49.506;10.400;2024-03-02T00:58:28;17.43;;;13.17;;
9422;SDS011;65863;49.506;10.400;2024-03-02T01:01:14;18.70;;;13.40;;
9422;SDS011;65863;49.506;10.400;2024-03-02T01:04:03;19.17;;;13.70;;
9422;SDS011;65863;49.506;10.400;2024-03-02T01:06:49;18.23;;;13.93;;
9422;SDS011;65863;49.506;10.400;2024-03-02T01:09:33;21.90;;;15.27;;
9422;SDS011;65863;49.506;10.400;2024-03-02T01:12:16;21.67;;;13.80;;
9422;SDS011;65863;49.506;10.400;2024-03-02T01:15:01;17.03;;;13.20;;
9422;SDS011;65863;49.506;10.400;2024-03-02T01:17:50;17.73;;;13.57;;
9422;SDS011;65863;49.506;10.400;2024-03-02T01:20:34;18.33;;;14.50;;
9422;SDS011;65863;49.506;10.400;2024-03-02T01:23:19;19.17;;;13.77;;
9422;SDS011;65863;49.506;10.400;2024-03-02T01:26:03;18.07;;;14.03;;
9422;SDS011;65863;49.506;10.400;2024-03-02T01:28:48;18.77;;;13.90;;
9422;SDS011;65863;49.506;10.400;2024-03-02T01:31:34;17.70;;;13.83;;
9422;SDS011;65863;49.506;10.400;2024-03-02T01:34:18;19.53;;;14.03;;
9422;SDS011;65863;49.506;10.400;2024-03-02T01:37:02;22.43;;;14.67;;
9422;SDS011;65863;49.506;10.400;2024-03-02T01:39:47;20.30;;;14.73;;
9422;SDS011;65863;49.506;10.400;2024-03-02T01:42:36;20.10;;;14.33;;
9422;SDS011;65863;49.506;10.400;2024-03-02T01:45:21;15.83;;;12.30;;
9422;SDS011;65863;49.506;10.400;2024-03-02T01:48:10;17.70;;;12.97;;
9422;SDS011;65863;49.506;10.400;2024-03-02T01:50:54;17.73;;;13.40;;
9422;SDS011;65863;49.506;10.400;2024-03-02T01:53:40;16.93;;;12.97;;
9422;SDS011;65863;49.506;10.400;2024-03-02T01:56:24;17.03;;;11.90;;
9422;SDS011;65863;49.506;10.400;2024-03-02T01:59:09;17.43;;;13.10;;
9422;SDS011;65863;49.506;10.400;2024-03-02T02:01:53;21.73;;;14.00;;
9422;SDS011;65863;49.506;10.400;2024-03-02T02:04:37;18.20;;;13.93;;
9422;SDS011;65863;49.506;10.400;2024-03-02T02:07:22;18.03;;;13.43;;
9422;SDS011;65863;49.506;10.400;2024-03-02T02:10:08;18.10;;;13.57;;
9422;SDS011;65863;49.506;10.400;2024-03-02T02:12:54;17.07;;;12.33;;
9422;SDS011;65863;49.506;10.400;2024-03-02T02:15:38;14.40;;;11.40;;
9422;SDS011;65863;49.506;10.400;2024-03-02T02:18:25;14.33;;;11.73;;
9422;SDS011;65863;49.506;10.400;2024-03-02T02:21:18;14.80;;;11.47;;
9422;SDS011;65863;49.506;10.400;2024-03-02T02:24:07;14.13;;;11.57;;
9422;SDS011;65863;49.506;10.400;2024-03-02T02:26:53;13.50;;;11.13;;
9422;SDS011;65863;49.506;10.400;2024-03-02T02:29:37;14.43;;;11.77;;
9422;SDS011;65863;49.506;10.400;2024-03-02T02:32:22;14.17;;;11.57;;
9422;SDS011;65863;49.506;10.400;2024-03-02T02:35:07;15.20;;;12.43;;
9422;SDS011;65863;49.506;10.400;2024-03-02T02:37:53;14.17;;;11.77;;
9422;SDS011;65863;49.506;10.400;2024-03-02T02:40:39;16.47;;;12.63;;
9422;SDS011;65863;49.506;10.400;2024-03-02T02:43:23;15.93;;;12.37;;
9422;SDS011;65863;49.506;10.400;2024-03-02T02:46:10;14.77;;;11.60;;
9422;SDS011;65863;49.506;10.400;2024-03-02T02:48:55;16.10;;;12.27;;
9422;SDS011;65863;49.506;10.400;2024-03-02T02:51:39;20.93;;;14.57;;
9422;SDS011;65863;49.506;10.400;2024-03-02T02:54:24;19.80;;;13.53;;
9422;SDS011;65863;49.506;10.400;2024-03-02T02:57:09;21.57;;;16.07;;
9422;SDS011;65863;49.506;10.400;2024-03-02T02:59:53;25.47;;;17.93;;
9422;SDS011;65863;49.506;10.400;2024-03-02T03:02:37;26.80;;;18.27;;
9422;SDS011;65863;49.506;10.400;2024-03-02T03:05:24;28.63;;;19.70;;
9422;SDS011;65863;49.506;10.400;2024-03-02T03:08:08;29.37;;;19.47;;
9422;SDS011;65863;49.506;10.400;2024-03-02T03:10:52;31.37;;;19.33;;
9422;SDS011;65863;49.506;10.400;2024-03-02T03:13:38;32.53;;;20.27;;
9422;SDS011;65863;49.506;10.400;2024-03-02T03:16:26;31.40;;;19.80;;
9422;SDS011;65863;49.506;10.400;2024-03-02T03:19:11;28.17;;;18.97;;
9422;SDS011;65863;49.506;10.400;2024-03-02T03:21:55;34.37;;;19.97;;
9422;SDS011;65863;49.506;10.400;2024-03-02T03:24:42;27.20;;;19.47;;
9422;SDS011;65863;49.506;10.400;2024-03-02T03:27:26;28.60;;;19.47;;
9422;SDS011;65863;49.506;10.400;2024-03-02T03:30:15;28.97;;;19.60;;
9422;SDS011;65863;49.506;10.400;2024-03-02T03:33:01;28.13;;;18.80;;
9422;SDS011;65863;49.506;10.400;2024-03-02T03:35:45;26.93;;;19.27;;
9422;SDS011;65863;49.506;10.400;2024-03-02T03:38:33;21.90;;;17.03;;
9422;SDS011;65863;49.506;10.400;2024-03-02T03:41:19;24.43;;;16.27;;
9422;SDS011;65863;49.506;10.400;2024-03-02T03:44:05;18.90;;;14.27;;
9422;SDS011;65863;49.506;10.400;2024-03-02T03:46:49;20.80;;;15.50;;
9422;SDS011;65863;49.506;10.400;2024-03-02T03:49:34;17.30;;;14.60;;
9422;SDS011;65863;49.506;10.400;2024-03-02T03:52:18;17.80;;;13.53;;
9422;SDS011;65863;49.506;10.400;2024-03-02T03:55:05;18.03;;;14.27;;
9422;SDS011;65863;49.506;10.400;2024-03-02T03:57:51;19.00;;;14.40;;
9422;SDS011;65863;49.506;10.400;2024-03-02T04:00:36;16.63;;;12.83;;
9422;SDS011;65863;49.506;10.400;2024-03-02T04:03:22;18.03;;;13.93;;
9422;SDS011;65863;49.506;10.400;2024-03-02T04:06:06;15.73;;;12.53;;
9422;SDS011;65863;49.506;10.400;2024-03-02T04:08:50;14.67;;;12.33;;
9422;SDS011;65863;49.506;10.400;2024-03-02T04:11:35;16.77;;;13.67;;
9422;SDS011;65863;49.506;10.400;2024-03-02T04:14:20;17.50;;;13.80;;
9422;SDS011;65863;49.506;10.400;2024-03-02T04:17:06;17.70;;;13.53;;
9422;SDS011;65863;49.506;10.400;2024-03-02T04:19:50;17.73;;;14.60;;
9422;SDS011;65863;49.506;10.400;2024-03-02T04:22:35;19.30;;;13.73;;
9422;SDS011;65863;49.506;10.400;2024-03-02T04:25:21;18.43;;;13.97;;
9422;SDS011;65863;49.506;10.400;2024-03-02T04:28:06;17.93;;;13.57;;
9422;SDS011;65863;49.506;10.400;2024-03-02T04:30:50;20.77;;;14.10;;
9422;SDS011;65863;49.506;10.400;2024-03-02T04:33:35;18.77;;;14.27;;
9422;SDS011;65863;49.506;10.400;2024-03-02T04:36:19;20.87;;;14.47;;
9422;SDS011;65863;49.506;10.400;2024-03-02T04:39:06;14.43;;;11.83;;
9422;SDS011;65863;49.506;10.400;2024-03-02T04:41:53;18.13;;;13.47;;
9422;SDS011;65863;49.506;10.400;2024-03-02T04:44:37;17.43;;;13.17;;
9422;SDS011;65863;49.506;10.400;2024-03-02T04:47:21;16.87;;;13.10;;
9422;SDS011;65863;49.506;10.400;2024-03-02T04:50:09;17.07;;;12.73;;
9422;SDS011;65863;49.506;10.400;2024-03-02T04:52:54;13.53;;;11.20;;
9422;SDS011;65863;49.506;10.400;2024-03-02T04:55:41;15.77;;;12.33;;
9422;SDS011;65863;49.506;10.400;2024-03-02T04:58:28;18.30;;;13.20;;
9422;SDS011;65863;49.506;10.400;2024-03-02T05:01:15;16.47;;;12.70;;
9422;SDS011;65863;49.506;10.400;2024-03-02T05:04:02;17.70;;;12.40;;
9422;SDS011;65863;49.506;10.400;2024-03-02T05:06:47;18.23;;;13.50;;
9422;SDS011;65863;49.506;10.400;2024-03-02T05:09:36;18.60;;;13.97;;
9422;SDS011;65863;49.506;10.400;2024-03-02T05:12:21;17.90;;;13.47;;
9422;SDS011;65863;49.506;10.400;2024-03-02T05:15:24;21.07;;;13.77;;
9422;SDS011;65863;49.506;10.400;2024-03-02T05:18:23;19.77;;;14.20;;
9422;SDS011;65863;49.506;10.400;2024-03-02T05:21:10;19.47;;;14.47;;
9422;SDS011;65863;49.506;10.400;2024-03-02T05:23:55;21.77;;;14.77;;
9422;SDS011;65863;49.506;10.400;2024-03-02T05:26:40;21.00;;;14.30;;
9422;SDS011;65863;49.506;10.400;2024-03-02T05:29:24;19.77;;;14.47;;
9422;SDS011;65863;49.506;10.400;2024-03-02T05:32:10;21.93;;;14.97;;
9422;SDS011;65863;49.506;10.400;2024-03-02T05:34:57;21.37;;;14.87;;
9422;SDS011;65863;49.506;10.400;2024-03-02T05:37:41;20.57;;;15.10;;
9422;SDS011;65863;49.506;10.400;2024-03-02T05:40:27;18.07;;;13.47;;
9422;SDS011;65863;49.506;10.400;2024-03-02T05:43:12;20.20;;;14.03;;
9422;SDS011;65863;49.506;10.400;2024-03-02T05:45:56;22.87;;;14.73;;
9422;SDS011;65863;49.506;10.400;2024-03-02T05:48:42;23.07;;;14.70;;
9422;SDS011;65863;49.506;10.400;2024-03-02T05:51:27;20.73;;;14.17;;
9422;SDS011;65863;49.506;10.400;2024-03-02T05:54:11;19.17;;;13.27;;
9422;SDS011;65863;49.506;10.400;2024-03-02T05:56:56;19.40;;;14.73;;
9422;SDS011;65863;49.506;10.400;2024-03-02T05:59:42;20.00;;;13.97;;
9422;SDS011;65863;49.506;10.400;2024-03-02T06:02:26;20.40;;;13.23;;
9422;SDS011;65863;49.506;10.400;2024-03-02T06:05:12;18.73;;;13.00;;
9422;SDS011;65863;49.506;10.400;2024-03-02T06:07:59;19.20;;;13.77;;
9422;SDS011;65863;49.506;10.400;2024-03-02T06:10:44;18.50;;;13.63;;
9422;SDS011;65863;49.506;10.400;2024-03-02T06:13:40;20.90;;;14.57;;
9422;SDS011;65863;49.506;10.400;2024-03-02T06:16:36;22.10;;;13.83;;
9422;SDS011;65863;49.506;10.400;2024-03-02T06:19:24;20.97;;;14.50;;
9422;SDS011;65863;49.506;10.400;2024-03-02T06:22:09;20.23;;;14.03;;
9422;SDS011;65863;49.506;10.400;2024-03-02T06:24:54;19.93;;;13.93;;
9422;SDS011;65863;49.506;10.400;2024-03-02T06:27:39;18.27;;;12.97;;
9422;SDS011;65863;49.506;10.400;2024-03-02T06:30:25;17.67;;;12.37;;
9422;SDS011;65863;49.506;10.400;2024-03-02T06:33:09;17.60;;;12.70;;
9422;SDS011;65863;49.506;10.400;2024-03-02T06:35:54;15.73;;;12.20;;
9422;SDS011;65863;49.506;10.400;2024-03-02T06:38:39;15.87;;;11.87;;
9422;SDS011;65863;49.506;10.400;2024-03-02T06:41:25;18.37;;;12.23;;
9422;SDS011;65863;49.506;10.400;2024-03-02T06:44:10;16.30;;;12.17;;
9422;SDS011;65863;49.506;10.400;2024-03-02T06:46:55;15.90;;;12.67;;
9422;SDS011;65863;49.506;10.400;2024-03-02T06:49:39;18.33;;;13.90;;
9422;SDS011;65863;49.506;10.400;2024-03-02T06:52:25;19.80;;;14.33;;
9422;SDS011;65863;49.506;10.400;2024-03-02T06:55:09;22.97;;;15.43;;
9422;SDS011;65863;49.506;10.400;2024-03-02T06:57:53;30.47;;;16.57;;
9422;SDS011;65863;49.506;10.400;2024-03-02T07:00:39;24.93;;;16.47;;
9422;SDS011;65863;49.506;10.400;2024-03-02T07:03:24;29.67;;;19.20;;
9422;SDS011;65863;49.506;10.400;2024-03-02T07:06:07;30.50;;;20.43;;
9422;SDS011;65863;49.506;10.400;2024-03-02T07:08:52;31.80;;;21.07;;
9422;SDS011;65863;49.506;10.400;2024-03-02T07:11:39;29.03;;;19.60;;
9422;SDS011;65863;49.506;10.400;2024-03-02T07:14:24;28.13;;;19.47;;
9422;SDS011;65863;49.506;10.400;2024-03-02T07:17:29;30.27;;;21.07;;
9422;SDS011;65863;49.506;10.400;2024-03-02T07:20:15;29.70;;;19.63;;
9422;SDS011;65863;49.506;10.400;2024-03-02T07:23:01;26.00;;;17.33;;
9422;SDS011;65863;49.506;10.400;2024-03-02T07:25:45;25.63;;;17.93;;
9422;SDS011;65863;49.506;10.400;2024-03-02T07:28:30;22.83;;;16.70;;
9422;SDS011;65863;49.506;10.400;2024-03-02T07:31:16;23.07;;;15.80;;
9422;SDS011;65863;49.506;10.400;2024-03-02T07:34:01;20.40;;;15.50;;
9422;SDS011;65863;49.506;10.400;2024-03-02T07:36:47;19.17;;;14.77;;
9422;SDS011;65863;49.506;10.400;2024-03-02T07:39:34;16.50;;;14.33;;
9422;SDS011;65863;49.506;10.400;2024-03-02T07:42:19;16.13;;;12.83;;
9422;SDS011;65863;49.506;10.400;2024-03-02T07:45:06;16.10;;;13.83;;
9422;SDS011;65863;49.506;10.400;2024-03-02T07:47:52;22.53;;;16.97;;
9422;SDS011;65863;49.506;10.400;2024-03-02T07:50:36;17.20;;;14.40;;
9422;SDS011;65863;49.506;10.400;2024-03-02T07:53:21;17.20;;;13.93;;
9422;SDS011;65863;49.506;10.400;2024-03-02T07:56:05;15.30;;;12.63;;
9422;SDS011;65863;49.506;10.400;2024-03-02T07:58:50;13.57;;;11.67;;
9422;SDS011;65863;49.506;10.400;2024-03-02T08:01:34;13.40;;;11.57;;
9422;SDS011;65863;49.506;10.400;2024-03-02T08:04:18;14.60;;;12.27;;
9422;SDS011;65863;49.506;10.400;2024-03-02T08:07:02;15.70;;;12.60;;
9422;SDS011;65863;49.506;10.400;2024-03-02T08:09:47;13.53;;;11.47;;
9422;SDS011;65863;49.506;10.400;2024-03-02T08:12:31;12.90;;;11.20;;
9422;SDS011;65863;49.506;10.400;2024-03-02T08:15:16;13.00;;;11.53;;
9422;SDS011;65863;49.506;10.400;2024-03-02T08:17:59;12.60;;;11.30;;
9422;SDS011;65863;49.506;10.400;2024-03-02T08:20:44;13.67;;;12.10;;
9422;SDS011;65863;49.506;10.400;2024-03-02T08:23:28;13.10;;;11.20;;
9422;SDS011;65863;49.506;10.400;2024-03-02T08:26:13;13.30;;;10.90;;
9422;SDS011;65863;49.506;10.400;2024-03-02T08:28:57;12.97;;;10.83;;
9422;SDS011;65863;49.506;10.400;2024-03-02T08:31:44;11.77;;;10.27;;
9422;SDS011;65863;49.506;10.400;2024-03-02T08:34:28;10.73;;;9.60;;
9422;SDS011;65863;49.506;10.400;2024-03-02T08:37:12;10.60;;;9.40;;
9422;SDS011;65863;49.506;10.400;2024-03-02T08:39:57;11.73;;;9.57;;
9422;SDS011;65863;49.506;10.400;2024-03-02T08:42:41;11.03;;;9.90;;
9422;SDS011;65863;49.506;10.400;2024-03-02T08:45:26;11.03;;;9.90;;
9422;SDS011;65863;49.506;10.400;2024-03-02T08:48:10;11.63;;;9.73;;
9422;SDS011;65863;49.506;10.400;2024-03-02T08:50:54;10.27;;;9.17;;
9422;SDS011;65863;49.506;10.400;2024-03-02T08:53:38;11.93;;;9.17;;
9422;SDS011;65863;49.506;10.400;2024-03-02T08:56:23;10.20;;;9.10;;
9422;SDS011;65863;49.506;10.400;2024-03-02T08:59:07;9.80;;;8.80;;
9422;SDS011;65863;49.506;10.400;2024-03-02T09:01:51;9.30;;;8.20;;
9422;SDS011;65863;49.506;10.400;2024-03-02T09:04:37;8.43;;;7.50;;
9422;SDS011;65863;49.506;10.400;2024-03-02T09:07:21;8.43;;;7.53;;
9422;SDS011;65863;49.506;10.400;2024-03-02T09:10:05;9.33;;;8.43;;
9422;SDS011;65863;49.506;10.400;2024-03-02T09:12:50;8.53;;;7.63;;
9422;SDS011;65863;49.506;10.400;2024-03-02T09:15:34;8.40;;;7.20;;
9422;SDS011;65863;49.506;10.400;2024-03-02T09:18:21;7.87;;;7.07;;
9422;SDS011;65863;49.506;10.400;2024-03-02T09:21:05;6.87;;;6.17;;
9422;SDS011;65863;49.506;10.400;2024-03-02T09:23:50;6.77;;;6.07;;
9422;SDS011;65863;49.506;10.400;2024-03-02T09:26:34;7.07;;;6.37;;
9422;SDS011;65863;49.506;10.400;2024-03-02T09:29:19;6.63;;;5.93;;
9422;SDS011;65863;49.506;10.400;2024-03-02T09:32:07;6.90;;;6.20;;
9422;SDS011;65863;49.506;10.400;2024-03-02T09:34:55;6.63;;;5.87;;
9422;SDS011;65863;49.506;10.400;2024-03-02T09:37:39;7.40;;;5.53;;
9422;SDS011;65863;49.506;10.400;2024-03-02T09:40:23;6.47;;;5.87;;
9422;SDS011;65863;49.506;10.400;2024-03-02T09:43:08;10.37;;;7.67;;
9422;SDS011;65863;49.506;10.400;2024-03-02T09:45:53;5.90;;;5.40;;
9422;SDS011;65863;49.506;10.400;2024-03-02T09:48:37;5.97;;;5.47;;
9422;SDS011;65863;49.506;10.400;2024-03-02T09:51:21;6.70;;;5.80;;
9422;SDS011;65863;49.506;10.400;2024-03-02T09:54:07;6.27;;;5.43;;
9422;SDS011;65863;49.506;10.400;2024-03-02T09:56:52;6.77;;;5.23;;
9422;SDS011;65863;49.506;10.400;2024-03-02T09:59:36;5.73;;;5.13;;
9422;SDS011;65863;49.506;10.400;2024-03-02T10:02:20;5.20;;;4.70;;
9422;SDS011;65863;49.506;10.400;2024-03-02T10:05:06;5.73;;;5.13;;
9422;SDS011;65863;49.506;10.400;2024-03-02T10:08:01;6.10;;;5.50;;
9422;SDS011;65863;49.506;10.400;2024-03-02T10:10:47;4.33;;;3.93;;
9422;SDS011;65863;49.506;10.400;2024-03-02T10:13:31;5.37;;;4.87;;
9422;SDS011;65863;49.506;10.400;2024-03-02T10:16:16;4.77;;;4.37;;
9422;SDS011;65863;49.506;10.400;2024-03-02T10:19:17;4.47;;;3.97;;
9422;SDS011;65863;49.506;10.400;2024-03-02T10:22:02;6.30;;;5.70;;
9422;SDS011;65863;49.506;10.400;2024-03-02T10:24:47;5.37;;;4.87;;
9422;SDS011;65863;49.506;10.400;2024-03-02T10:27:31;6.30;;;5.13;;
9422;SDS011;65863;49.506;10.400;2024-03-02T10:30:17;4.40;;;4.00;;
9422;SDS011;65863;49.506;10.400;2024-03-02T10:33:02;4.77;;;4.37;;
9422;SDS011;65863;49.506;10.400;2024-03-02T10:35:47;5.70;;;4.70;;
9422;SDS011;65863;49.506;10.400;2024-03-02T10:38:33;4.30;;;3.67;;
9422;SDS011;65863;49.506;10.400;2024-03-02T10:41:18;4.03;;;3.67;;
9422;SDS011;65863;49.506;10.400;2024-03-02T10:44:03;5.03;;;4.53;;
9422;SDS011;65863;49.506;10.400;2024-03-02T10:46:49;4.57;;;4.17;;
9422;SDS011;65863;49.506;10.400;2024-03-02T10:49:34;4.97;;;3.50;;
9422;SDS011;65863;49.506;10.400;2024-03-02T10:52:22;4.30;;;3.50;;
9422;SDS011;65863;49.506;10.400;2024-03-02T10:55:07;4.33;;;3.93;;
9422;SDS011;65863;49.506;10.400;2024-03-02T10:57:53;5.50;;;4.10;;
9422;SDS011;65863;49.506;10.400;2024-03-02T11:00:40;4.23;;;3.83;;
9422;SDS011;65863;49.506;10.400;2024-03-02T11:03:26;3.80;;;3.50;;
9422;SDS011;65863;49.506;10.400;2024-03-02T11:06:10;3.93;;;3.63;;
9422;SDS011;65863;49.506;10.400;2024-03-02T11:08:58;3.47;;;3.17;;
9422;SDS011;65863;49.506;10.400;2024-03-02T11:11:52;3.77;;;3.40;;
9422;SDS011;65863;49.506;10.400;2024-03-02T11:14:41;3.83;;;3.50;;
9422;SDS011;65863;49.506;10.400;2024-03-02T11:17:28;3.20;;;2.90;;
9422;SDS011;65863;49.506;10.400;2024-03-02T11:20:13;3.00;;;2.70;;
9422;SDS011;65863;49.506;10.400;2024-03-02T11:23:04;3.10;;;2.80;;
9422;SDS011;65863;49.506;10.400;2024-03-02T11:25:53;4.27;;;2.80;;
9422;SDS011;65863;49.506;10.400;2024-03-02T11:28:37;3.30;;;2.93;;
9422;SDS011;65863;49.506;10.400;2024-03-02T11:31:21;2.60;;;2.40;;
9422;SDS011;65863;49.506;10.400;2024-03-02T11:37:28;3.20;;;2.90;;
9422;SDS011;65863;49.506;10.400;2024-03-02T11:40:13;3.20;;;2.77;;
9422;SDS011;65863;49.506;10.400;2024-03-02T11:42:57;2.87;;;2.67;;
9422;SDS011;65863;49.506;10.400;2024-03-02T11:45:44;3.60;;;3.30;;
9422;SDS011;65863;49.506;10.400;2024-03-02T11:48:28;3.17;;;2.87;;
9422;SDS011;65863;49.506;10.400;2024-03-02T11:51:14;2.90;;;2.70;;
9422;SDS011;65863;49.506;10.400;2024-03-02T11:53:58;2.90;;;2.70;;
9422;SDS011;65863;49.506;10.400;2024-03-02T11:56:44;3.00;;;2.70;;
9422;SDS011;65863;49.506;10.400;2024-03-02T11:59:30;3.33;;;2.40;;
9422;SDS011;65863;49.506;10.400;2024-03-02T12:02:18;2.90;;;2.60;;
9422;SDS011;65863;49.506;10.400;2024-03-02T12:05:03;2.93;;;2.57;;
9422;SDS011;65863;49.506;10.400;2024-03-02T12:07:54;2.70;;;2.50;;
9422;SDS011;65863;49.506;10.400;2024-03-02T12:10:44;2.50;;;2.30;;
9422;SDS011;65863;49.506;10.400;2024-03-02T12:13:51;2.33;;;2.13;;
9422;SDS011;65863;49.506;10.400;2024-03-02T12:16:36;3.07;;;2.30;;
9422;SDS011;65863;49.506;10.400;2024-03-02T12:19:22;3.17;;;2.17;;
9422;SDS011;65863;49.506;10.400;2024-03-02T12:22:07;2.43;;;2.20;;
9422;SDS011;65863;49.506;10.400;2024-03-02T12:24:51;4.70;;;2.90;;
9422;SDS011;65863;49.506;10.400;2024-03-02T12:27:35;2.53;;;2.33;;
9422;SDS011;65863;49.506;10.400;2024-03-02T12:30:20;2.53;;;2.33;;
9422;SDS011;65863;49.506;10.400;2024-03-02T12:33:05;2.50;;;2.30;;
9422;SDS011;65863;49.506;10.400;2024-03-02T12:35:49;3.87;;;2.47;;
9422;SDS011;65863;49.506;10.400;2024-03-02T12:38:33;2.50;;;2.00;;
9422;SDS011;65863;49.506;10.400;2024-03-02T12:41:17;2.97;;;2.67;;
9422;SDS011;65863;49.506;10.400;2024-03-02T12:44:03;2.30;;;2.10;;
9422;SDS011;65863;49.506;10.400;2024-03-02T12:46:48;4.27;;;2.43;;
9422;SDS011;65863;49.506;10.400;2024-03-02T12:49:32;3.30;;;2.90;;
9422;SDS011;65863;49.506;10.400;2024-03-02T12:52:19;4.33;;;3.33;;
9422;SDS011;65863;49.506;10.400;2024-03-02T12:55:04;3.97;;;2.87;;
9422;SDS011;65863;49.506;10.400;2024-03-02T12:57:49;4.50;;;2.80;;
9422;SDS011;65863;49.506;10.400;2024-03-02T13:00:35;2.93;;;2.63;;
9422;SDS011;65863;49.506;10.400;2024-03-02T13:03:19;2.50;;;2.30;;
9422;SDS011;65863;49.506;10.400;2024-03-02T13:06:06;2.77;;;2.53;;
9422;SDS011;65863;49.506;10.400;2024-03-02T13:08:50;2.60;;;2.40;;
9422;SDS011;65863;49.506;10.400;2024-03-02T13:11:39;3.00;;;2.70;;
9422;SDS011;65863;49.506;10.400;2024-03-02T13:14:23;3.87;;;2.87;;
9422;SDS011;65863;49.506;10.400;2024-03-02T13:17:11;3.03;;;2.83;;
9422;SDS011;65863;49.506;10.400;2024-03-02T13:19:58;2.60;;;2.40;;
9422;SDS011;65863;49.506;10.400;2024-03-02T13:22:43;3.10;;;2.60;;
9422;SDS011;65863;49.506;10.400;2024-03-02T13:25:28;2.87;;;2.57;;
9422;SDS011;65863;49.506;10.400;2024-03-02T13:28:14;3.97;;;2.43;;
9422;SDS011;65863;49.506;10.400;2024-03-02T13:30:59;3.80;;;2.90;;
9422;SDS011;65863;49.506;10.400;2024-03-02T13:33:43;2.90;;;2.70;;
9422;SDS011;65863;49.506;10.400;2024-03-02T13:36:26;3.37;;;2.90;;
9422;SDS011;65863;49.506;10.400;2024-03-02T13:39:10;2.77;;;2.57;;
9422;SDS011;65863;49.506;10.400;2024-03-02T13:41:54;3.67;;;2.80;;
9422;SDS011;65863;49.506;10.400;2024-03-02T13:44:46;4.57;;;2.40;;
9422;SDS011;65863;49.506;10.400;2024-03-02T13:47:34;2.50;;;2.30;;
9422;SDS011;65863;49.506;10.400;2024-03-02T13:50:18;2.30;;;2.10;;
9422;SDS011;65863;49.506;10.400;2024-03-02T13:53:03;4.33;;;2.33;;
9422;SDS011;65863;49.506;10.400;2024-03-02T13:55:50;3.27;;;2.97;;
9422;SDS011;65863;49.506;10.400;2024-03-02T13:58:33;4.93;;;3.10;;
9422;SDS011;65863;49.506;10.400;2024-03-02T14:01:17;3.10;;;2.80;;
9422;SDS011;65863;49.506;10.400;2024-03-02T14:04:01;2.80;;;2.40;;
9422;SDS011;65863;49.506;10.400;2024-03-02T14:06:49;3.00;;;2.70;;
9422;SDS011;65863;49.506;10.400;2024-03-02T14:09:33;3.70;;;3.40;;
9422;SDS011;65863;49.506;10.400;2024-03-02T14:12:18;4.37;;;3.80;;
9422;SDS011;65863;49.506;10.400;2024-03-02T14:15:05;5.77;;;4.73;;
9422;SDS011;65863;49.506;10.400;2024-03-02T14:17:50;5.83;;;4.53;;
9422;SDS011;65863;49.506;10.400;2024-03-02T14:20:34;4.40;;;4.00;;
9422;SDS011;65863;49.506;10.400;2024-03-02T14:23:18;4.90;;;4.47;;
9422;SDS011;65863;49.506;10.400;2024-03-02T14:26:05;4.13;;;3.73;;
9422;SDS011;65863;49.506;10.400;2024-03-02T14:28:49;4.80;;;4.30;;
9422;SDS011;65863;49.506;10.400;2024-03-02T14:31:34;6.97;;;4.80;;
9422;SDS011;65863;49.506;10.400;2024-03-02T14:34:19;5.53;;;4.10;;
9422;SDS011;65863;49.506;10.400;2024-03-02T14:37:05;5.60;;;4.60;;
9422;SDS011;65863;49.506;10.400;2024-03-02T14:39:49;5.20;;;4.60;;
9422;SDS011;65863;49.506;10.400;2024-03-02T14:42:34;4.90;;;4.40;;
9422;SDS011;65863;49.506;10.400;2024-03-02T14:45:18;4.40;;;4.00;;
9422;SDS011;65863;49.506;10.400;2024-03-02T14:48:01;4.80;;;4.40;;
9422;SDS011;65863;49.506;10.400;2024-03-02T14:50:46;5.03;;;4.53;;
9422;SDS011;65863;49.506;10.400;2024-03-02T14:53:31;6.63;;;5.10;;
9422;SDS011;65863;49.506;10.400;2024-03-02T14:56:15;6.30;;;5.70;;
9422;SDS011;65863;49.506;10.400;2024-03-02T14:58:59;6.40;;;5.80;;
9422;SDS011;65863;49.506;10.400;2024-03-02T15:01:43;8.73;;;6.90;;
9422;SDS011;65863;49.506;10.400;2024-03-02T15:04:28;6.73;;;5.93;;
9422;SDS011;65863;49.506;10.400;2024-03-02T15:07:13;5.87;;;5.37;;
9422;SDS011;65863;49.506;10.400;2024-03-02T15:09:58;7.13;;;6.43;;
9422;SDS011;65863;49.506;10.400;2024-03-02T15:12:42;9.00;;;7.47;;
9422;SDS011;65863;49.506;10.400;2024-03-02T15:15:26;7.63;;;6.77;;
9422;SDS011;65863;49.506;10.400;2024-03-02T15:18:10;7.93;;;6.43;;
9422;SDS011;65863;49.506;10.400;2024-03-02T15:20:56;7.57;;;6.67;;
9422;SDS011;65863;49.506;10.400;2024-03-02T15:23:41;8.03;;;7.13;;
9422;SDS011;65863;49.506;10.400;2024-03-02T15:26:25;7.20;;;6.37;;
9422;SDS011;65863;49.506;10.400;2024-03-02T15:29:09;7.93;;;7.03;;
9422;SDS011;65863;49.506;10.400;2024-03-02T15:31:53;7.70;;;6.90;;
9422;SDS011;65863;49.506;10.400;2024-03-02T15:34:37;9.00;;;7.30;;
9422;SDS011;65863;49.506;10.400;2024-03-02T15:37:21;11.73;;;8.90;;
9422;SDS011;65863;49.506;10.400;2024-03-02T15:40:06;11.53;;;8.67;;
9422;SDS011;65863;49.506;10.400;2024-03-02T15:42:52;10.60;;;8.60;;
9422;SDS011;65863;49.506;10.400;2024-03-02T15:45:36;11.17;;;8.30;;
9422;SDS011;65863;49.506;10.400;2024-03-02T15:48:21;11.43;;;8.83;;
9422;SDS011;65863;49.506;10.400;2024-03-02T15:51:07;10.07;;;8.33;;
9422;SDS011;65863;49.506;10.400;2024-03-02T15:53:52;9.93;;;8.50;;
9422;SDS011;65863;49.506;10.400;2024-03-02T15:56:36;10.40;;;8.03;;
9422;SDS011;65863;49.506;10.400;2024-03-02T15:59:24;9.60;;;8.13;;
9422;SDS011;65863;49.506;10.400;2024-03-02T16:02:09;10.70;;;7.10;;
9422;SDS011;65863;49.506;10.400;2024-03-02T16:04:54;11.47;;;7.77;;
9422;SDS011;65863;49.506;10.400;2024-03-02T16:07:38;11.07;;;7.57;;
9422;SDS011;65863;49.506;10.400;2024-03-02T16:10:24;7.97;;;7.17;;
9422;SDS011;65863;49.506;10.400;2024-03-02T16:13:10;9.43;;;7.77;;
9422;SDS011;65863;49.506;10.400;2024-03-02T16:15:55;10.37;;;8.03;;
9422;SDS011;65863;49.506;10.400;2024-03-02T16:18:39;12.87;;;9.40;;
9422;SDS011;65863;49.506;10.400;2024-03-02T16:21:24;15.67;;;9.40;;
9422;SDS011;65863;49.506;10.400;2024-03-02T16:24:11;10.87;;;9.07;;
9422;SDS011;65863;49.506;10.400;2024-03-02T16:26:56;12.10;;;9.90;;
9422;SDS011;65863;49.506;10.400;2024-03-02T16:29:40;13.63;;;10.83;;
9422;SDS011;65863;49.506;10.400;2024-03-02T16:32:26;16.30;;;12.60;;